Pagina principală
METAR-TAF:

METAR-TAF

Aeroporturi :

Harry P. Williams Memorial Airport

Patterson, Louisiana, Statele Unite ale Americii

Latitudine: 29-43N, longitudine: 091-20W, elevație: 3 m

Observații meteo curente

Raportul a fost făcut în urmă cu 45 de minute, la 20:56 UTC
Vânt 7 kt de la Sud-est
Temperatură 32°C
Umiditate 63%
Presiune 1016 hPa
Vizibilitate: 16.1 km
Nori puțini la o înălțime de 4300 picior

METAR: KPTN 222056Z AUTO 14007KT 10SM FEW043 32/24 A3001 RMK AO2 SLP161 T03170239 58016 $

Ora: 16:41 (21:41 UTC)


TAF: lipsă

Observații și prognoze meteo pentru peste 4.000 de aeroporturi (rapoarte METAR și TAF).

Stațiile disponibile sunt reprezentate pe hartă prin puncte galbene și roșii.

Țineți indicatorul mouse-ului pe punctul dorit pentru a vedea denumirea stației.

Apoi, faceți clic pentru a vedea observațiile și prognozele meteorologice.

Pentru a schimba harta: Pentru mărire, faceți clic pe butoanele verzi cu cruce neagră; pentru micșorare, pe butonul verde cu o liniuță; pentru hărți învecinate, pe săgețile verzi.


METAR-TAF: